createdAt,value
2018-06-11T00:01:10.968Z,36.90
2018-06-11T00:03:39.418Z,36.90
2018-06-11T00:06:07.797Z,37.00
2018-06-11T00:08:36.189Z,37.20
2018-06-11T00:11:04.544Z,37.20
2018-06-11T00:13:32.848Z,37.40
2018-06-11T00:16:01.229Z,37.50
2018-06-11T00:18:29.635Z,37.60
2018-06-11T00:20:58.000Z,37.60
2018-06-11T00:23:26.358Z,38.30
2018-06-11T00:25:54.720Z,37.90
2018-06-11T00:28:23.050Z,38.00
2018-06-11T00:30:52.293Z,38.10
2018-06-11T00:33:20.647Z,38.10
2018-06-11T00:35:49.203Z,38.80
2018-06-11T00:38:17.535Z,38.20
2018-06-11T00:40:45.868Z,38.30
2018-06-11T00:43:14.232Z,38.50
2018-06-11T00:45:42.624Z,38.60
2018-06-11T00:48:11.003Z,38.80
2018-06-11T00:50:39.380Z,38.80
2018-06-11T00:53:07.736Z,38.90
2018-06-11T00:55:47.341Z,39.00
2018-06-11T00:58:15.746Z,39.10
2018-06-11T01:00:44.110Z,39.20
2018-06-11T01:03:12.572Z,39.20
2018-06-11T01:05:40.987Z,39.30
2018-06-11T01:10:37.486Z,39.60
2018-06-11T01:13:05.880Z,39.60
2018-06-11T01:15:34.221Z,39.70
2018-06-11T01:18:02.705Z,39.70
2018-06-11T01:20:31.102Z,40.00
2018-06-11T01:22:59.406Z,39.90
2018-06-11T01:25:27.810Z,40.10
2018-06-11T01:27:56.186Z,40.10
2018-06-11T01:30:24.614Z,40.20
2018-06-11T01:32:52.918Z,40.20
2018-06-11T01:35:21.202Z,40.40
2018-06-11T01:37:49.526Z,40.40
2018-06-11T01:40:17.864Z,40.50
2018-06-11T01:45:14.888Z,40.90
2018-06-11T01:47:44.188Z,40.90
2018-06-11T01:50:13.716Z,41.10
2018-06-11T01:52:43.051Z,41.10
2018-06-11T01:55:12.155Z,41.10
2018-06-11T01:57:41.166Z,41.00
2018-06-11T02:00:10.549Z,41.20
2018-06-11T02:02:39.281Z,41.30
2018-06-11T02:05:08.016Z,41.30
2018-06-11T02:07:36.323Z,41.30
2018-06-11T02:10:04.657Z,41.40
2018-06-11T02:12:33.180Z,41.40
2018-06-11T02:15:01.619Z,41.50
2018-06-11T02:17:29.959Z,41.60
2018-06-11T02:19:58.319Z,41.70
2018-06-11T02:22:26.610Z,41.80
2018-06-11T02:24:54.879Z,41.90
2018-06-11T02:27:23.819Z,42.00
2018-06-11T02:29:52.079Z,42.10
2018-06-11T02:32:20.434Z,42.30
2018-06-11T02:34:48.831Z,42.40
2018-06-11T02:37:17.163Z,42.50
2018-06-11T02:39:46.085Z,42.70
2018-06-11T02:42:15.016Z,42.80
2018-06-11T02:44:43.810Z,42.90
2018-06-11T02:47:12.207Z,43.00
2018-06-11T02:49:40.704Z,43.00
2018-06-11T02:52:09.073Z,42.90
2018-06-11T02:54:37.435Z,42.40
2018-06-11T02:57:05.780Z,43.00
2018-06-11T02:59:34.214Z,43.10
2018-06-11T03:02:02.825Z,43.20
2018-06-11T03:04:31.161Z,43.10
2018-06-11T03:06:59.486Z,43.20
2018-06-11T03:09:27.785Z,43.20
2018-06-11T03:11:56.209Z,43.30
2018-06-11T03:14:24.583Z,43.30
2018-06-11T03:16:53.136Z,43.40
2018-06-11T03:19:21.439Z,43.50
2018-06-11T03:21:49.743Z,43.60
2018-06-11T03:26:46.253Z,43.70
2018-06-11T03:29:14.834Z,43.70
2018-06-11T03:31:43.207Z,43.80
2018-06-11T03:34:11.626Z,43.80
2018-06-11T03:36:40.050Z,43.90
2018-06-11T03:39:08.930Z,43.90
2018-06-11T03:41:37.533Z,44.00
2018-06-11T03:44:05.922Z,44.10
2018-06-11T03:46:34.500Z,44.20
2018-06-11T03:49:02.763Z,44.30
2018-06-11T03:51:31.081Z,44.40
2018-06-11T03:53:59.431Z,44.40
2018-06-11T03:56:27.794Z,44.40
2018-06-11T03:58:56.161Z,44.60
2018-06-11T04:01:24.438Z,44.60
2018-06-11T04:03:52.738Z,44.80
2018-06-11T04:06:21.283Z,44.80
2018-06-11T04:08:49.643Z,44.90
2018-06-11T04:11:18.792Z,45.00
2018-06-11T04:13:47.262Z,45.10
2018-06-11T04:16:18.451Z,45.20
2018-06-11T04:18:46.854Z,45.30
2018-06-11T04:21:15.272Z,45.50
2018-06-11T04:23:43.803Z,45.50
2018-06-11T04:26:12.179Z,45.60
2018-06-11T04:28:40.566Z,45.60
2018-06-11T04:31:08.875Z,45.60
2018-06-11T04:33:37.370Z,45.60
2018-06-11T04:36:05.901Z,45.60
2018-06-11T04:38:34.356Z,45.60
2018-06-11T04:41:02.745Z,45.60
2018-06-11T04:43:32.168Z,45.60
2018-06-11T04:46:00.483Z,45.70
2018-06-11T04:48:29.194Z,45.70
2018-06-11T04:50:57.650Z,45.90
2018-06-11T04:53:26.079Z,45.90
2018-06-11T04:55:54.514Z,46.00
2018-06-11T04:58:23.461Z,46.10
2018-06-11T05:00:52.906Z,46.10
2018-06-11T05:03:22.193Z,46.10
2018-06-11T05:05:50.776Z,46.20
2018-06-11T05:08:19.344Z,46.20
2018-06-11T05:10:48.099Z,46.20
2018-06-11T05:13:16.674Z,46.30
2018-06-11T05:15:45.300Z,46.30
2018-06-11T05:18:14.083Z,46.30
2018-06-11T05:20:42.675Z,46.40
2018-06-11T05:23:11.181Z,46.40
2018-06-11T05:25:39.590Z,46.50
2018-06-11T05:28:07.953Z,46.50
2018-06-11T05:30:36.457Z,46.60
2018-06-11T05:33:04.899Z,46.60
2018-06-11T05:35:33.458Z,46.60
2018-06-11T05:38:02.027Z,46.70
2018-06-11T05:40:30.503Z,46.80
2018-06-11T05:42:58.993Z,48.90
2018-06-11T05:45:27.495Z,48.10
2018-06-11T05:47:55.944Z,47.80
2018-06-11T05:50:24.628Z,47.60
2018-06-11T05:52:53.111Z,47.60
2018-06-11T05:55:21.506Z,47.50
2018-06-11T05:57:49.976Z,47.60
2018-06-11T06:00:18.432Z,47.50
2018-06-11T06:05:15.164Z,47.50
2018-06-11T06:07:43.633Z,47.50
2018-06-11T06:10:12.282Z,47.50
2018-06-11T06:12:40.780Z,47.60
2018-06-11T06:15:09.277Z,47.70
2018-06-11T06:17:37.944Z,48.10
2018-06-11T06:20:07.192Z,47.50
2018-06-11T06:22:35.618Z,47.50
2018-06-11T06:25:04.177Z,47.40
2018-06-11T06:27:32.800Z,47.20
2018-06-11T06:30:01.240Z,47.10
2018-06-11T06:32:29.646Z,47.00
2018-06-11T06:34:58.109Z,47.00
2018-06-11T06:37:26.436Z,47.00
2018-06-11T06:39:54.876Z,47.00
2018-06-11T06:42:23.254Z,47.10
2018-06-11T06:44:51.653Z,47.00
2018-06-11T06:47:20.107Z,47.10
2018-06-11T06:49:48.439Z,47.10
2018-06-11T06:52:16.801Z,48.10
2018-06-11T06:54:45.162Z,47.70
2018-06-11T06:57:13.603Z,47.90
2018-06-11T06:59:41.998Z,48.00
2018-06-11T07:04:39.560Z,47.80
2018-06-11T07:07:08.121Z,47.50
2018-06-11T07:09:36.654Z,47.40
2018-06-11T07:12:05.235Z,47.20
2018-06-11T07:14:33.726Z,47.20
2018-06-11T07:17:02.207Z,47.20
2018-06-11T07:19:30.543Z,47.10
2018-06-11T07:21:58.980Z,47.10
2018-06-11T07:24:27.379Z,47.00
2018-06-11T07:26:55.934Z,46.90
2018-06-11T07:29:24.397Z,47.40
2018-06-11T07:31:52.828Z,46.70
2018-06-11T07:34:21.184Z,46.50
2018-06-11T07:36:49.592Z,46.20
2018-06-11T07:39:17.950Z,45.80
2018-06-11T07:41:46.426Z,45.60
2018-06-11T07:44:14.913Z,45.40
2018-06-11T07:46:43.474Z,45.20
2018-06-11T07:49:12.134Z,45.00
2018-06-11T07:51:41.266Z,45.00
2018-06-11T07:54:09.823Z,44.90
2018-06-11T07:56:38.349Z,44.80
2018-06-11T07:59:06.937Z,44.70
2018-06-11T08:01:35.486Z,44.80
2018-06-11T08:04:04.145Z,44.80
2018-06-11T08:06:32.742Z,44.90
2018-06-11T08:09:01.107Z,44.80
2018-06-11T08:11:29.675Z,44.80
2018-06-11T08:13:58.111Z,44.70
2018-06-11T08:16:26.517Z,45.00
2018-06-11T08:18:54.871Z,45.20
2018-06-11T08:21:23.199Z,45.10
2018-06-11T08:23:51.598Z,45.10
2018-06-11T08:26:20.003Z,45.40
2018-06-11T08:28:48.411Z,45.40
2018-06-11T08:31:16.738Z,45.20
2018-06-11T08:33:45.190Z,45.60
2018-06-11T08:36:13.752Z,45.20
2018-06-11T08:38:42.433Z,44.40
2018-06-11T08:41:10.933Z,43.60
2018-06-11T08:43:39.934Z,43.00
2018-06-11T08:46:08.471Z,42.40
2018-06-11T08:48:37.112Z,42.10
2018-06-11T08:51:05.589Z,42.70
2018-06-11T08:53:34.187Z,42.20
2018-06-11T08:56:02.866Z,43.40
2018-06-11T08:58:31.330Z,42.70
2018-06-11T09:00:59.798Z,42.50
2018-06-11T09:03:28.393Z,42.40
2018-06-11T09:05:56.947Z,43.00
2018-06-11T09:08:25.411Z,42.80
2018-06-11T09:10:54.003Z,43.90
2018-06-11T09:13:22.554Z,44.10
2018-06-11T09:15:51.066Z,44.60
2018-06-11T09:18:19.711Z,45.20
2018-06-11T09:20:48.217Z,45.00
2018-06-11T09:23:16.615Z,44.90
2018-06-11T09:25:45.198Z,44.60
2018-06-11T09:28:13.866Z,43.90
2018-06-11T09:30:42.619Z,42.70
2018-06-11T09:33:11.043Z,42.40
2018-06-11T09:35:39.415Z,42.20
2018-06-11T09:38:08.067Z,41.40
2018-06-11T09:40:36.464Z,40.90
2018-06-11T09:43:04.894Z,39.90
2018-06-11T09:45:33.521Z,38.70
2018-06-11T09:48:01.969Z,37.90
2018-06-11T09:50:30.274Z,37.50
2018-06-11T09:52:58.674Z,37.00
2018-06-11T09:55:26.979Z,37.00
2018-06-11T09:57:55.350Z,36.60
2018-06-11T10:00:28.901Z,36.10
2018-06-11T10:02:57.380Z,35.60
2018-06-11T10:05:25.698Z,35.30
2018-06-11T10:07:54.086Z,35.50
2018-06-11T10:10:22.511Z,35.90
2018-06-11T10:12:50.814Z,36.40
2018-06-11T10:15:19.164Z,36.80
2018-06-11T10:17:47.579Z,36.10
2018-06-11T10:20:15.955Z,35.10
2018-06-11T10:22:44.506Z,34.00
2018-06-11T10:25:13.014Z,33.70
2018-06-11T10:27:41.320Z,34.00
2018-06-11T10:30:10.429Z,33.80
2018-06-11T10:32:38.840Z,34.10
2018-06-11T10:35:07.178Z,34.00
2018-06-11T10:37:35.823Z,33.20
2018-06-11T10:40:04.305Z,32.70
2018-06-11T10:42:32.690Z,33.00
2018-06-11T10:45:01.181Z,33.30
2018-06-11T10:47:29.582Z,33.20
2018-06-11T10:49:57.899Z,32.80
2018-06-11T10:52:26.307Z,32.10
2018-06-11T10:54:54.713Z,31.40
2018-06-11T10:57:23.111Z,30.80
2018-06-11T10:59:51.481Z,30.20
2018-06-11T11:02:19.807Z,29.90
2018-06-11T11:04:48.170Z,29.80
2018-06-11T11:07:16.519Z,30.80
2018-06-11T11:09:45.175Z,30.30
2018-06-11T11:12:13.624Z,30.00
2018-06-11T11:14:41.917Z,29.80
2018-06-11T11:17:10.329Z,29.70
2018-06-11T11:19:38.659Z,29.50
2018-06-11T11:22:07.513Z,29.40
2018-06-11T11:24:36.042Z,29.40
2018-06-11T11:27:04.398Z,29.30
2018-06-11T11:29:32.841Z,29.40
2018-06-11T11:32:01.539Z,29.60
2018-06-11T11:34:30.018Z,29.80
2018-06-11T11:36:58.507Z,30.00
2018-06-11T11:39:26.853Z,30.10
2018-06-11T11:41:55.203Z,30.20
2018-06-11T11:44:23.677Z,30.60
2018-06-11T11:46:52.175Z,30.80
2018-06-11T11:49:20.673Z,30.70
2018-06-11T11:51:49.052Z,30.60
2018-06-11T11:54:17.375Z,31.00
2018-06-11T11:56:46.134Z,30.10
2018-06-11T11:59:14.545Z,30.00
2018-06-11T12:01:42.992Z,29.90
2018-06-11T12:04:11.382Z,29.80
2018-06-11T12:06:39.755Z,29.80
2018-06-11T12:09:08.367Z,29.90
2018-06-11T12:11:36.919Z,29.90
2018-06-11T12:14:05.359Z,29.90
2018-06-11T12:16:34.087Z,29.90
2018-06-11T12:19:02.404Z,30.00
2018-06-11T12:21:30.792Z,30.10
2018-06-11T12:23:59.325Z,30.40
2018-06-11T12:26:27.813Z,30.50
2018-06-11T12:28:56.239Z,30.60
2018-06-11T12:31:24.658Z,30.80
2018-06-11T12:33:52.947Z,30.90
2018-06-11T12:36:21.275Z,31.20
2018-06-11T12:38:49.563Z,31.30
2018-06-11T12:41:17.823Z,31.30
2018-06-11T12:43:46.239Z,31.50
2018-06-11T12:46:14.616Z,31.60
2018-06-11T12:48:42.951Z,32.20
2018-06-11T12:51:11.432Z,31.80
2018-06-11T12:53:39.742Z,32.00
2018-06-11T12:56:08.096Z,32.10
2018-06-11T12:58:36.528Z,32.20
2018-06-11T13:01:04.875Z,32.20
2018-06-11T13:03:33.168Z,32.30
2018-06-11T13:06:01.507Z,32.50
2018-06-11T13:08:29.859Z,32.70
2018-06-11T13:10:58.312Z,32.80
2018-06-11T13:13:26.651Z,32.80
2018-06-11T13:15:54.910Z,32.90
2018-06-11T13:18:23.236Z,33.00
2018-06-11T13:20:51.535Z,33.10
2018-06-11T13:23:19.843Z,33.20
2018-06-11T13:25:48.334Z,33.40
2018-06-11T13:28:16.678Z,33.60
2018-06-11T13:30:44.943Z,33.70
2018-06-11T13:33:13.456Z,33.80
2018-06-11T13:35:41.999Z,34.00
2018-06-11T13:38:10.528Z,34.00
2018-06-11T13:40:39.376Z,34.10
2018-06-11T13:43:07.766Z,34.30
2018-06-11T13:45:36.208Z,34.30
2018-06-11T13:48:04.771Z,34.30
2018-06-11T13:50:33.198Z,34.40
2018-06-11T13:53:01.678Z,34.30
2018-06-11T13:55:30.198Z,34.40
2018-06-11T13:57:58.593Z,34.40
2018-06-11T14:00:27.065Z,34.40
2018-06-11T14:02:55.663Z,34.50
2018-06-11T14:05:24.098Z,34.50
2018-06-11T14:07:52.759Z,34.60
2018-06-11T14:10:21.235Z,34.60
2018-06-11T14:12:49.947Z,34.60
2018-06-11T14:15:18.523Z,34.70
2018-06-11T14:17:46.925Z,34.80
2018-06-11T14:20:15.306Z,35.00
2018-06-11T14:25:11.839Z,35.30
2018-06-11T14:27:40.363Z,35.30
2018-06-11T14:30:09.000Z,35.40
2018-06-11T14:32:37.490Z,35.60
2018-06-11T14:35:06.984Z,35.50
2018-06-11T14:37:35.626Z,35.80
2018-06-11T14:40:04.034Z,35.90
2018-06-11T14:42:32.797Z,36.00
2018-06-11T14:45:01.306Z,36.10
2018-06-11T14:47:29.704Z,36.40
2018-06-11T14:49:58.108Z,36.50
2018-06-11T14:52:26.607Z,36.70
2018-06-11T14:54:55.197Z,36.80
2018-06-11T14:57:23.532Z,37.00
2018-06-11T14:59:51.882Z,37.20
2018-06-11T15:02:20.596Z,37.20
2018-06-11T15:04:49.075Z,37.20
2018-06-11T15:07:17.599Z,37.30
2018-06-11T15:09:46.004Z,37.40
2018-06-11T15:12:14.435Z,37.50
2018-06-11T15:14:42.834Z,37.60
2018-06-11T15:17:11.319Z,37.70
2018-06-11T15:19:39.786Z,37.70
2018-06-11T15:22:08.362Z,37.90
2018-06-11T15:24:37.485Z,38.10
2018-06-11T15:27:06.115Z,38.20
2018-06-11T15:29:34.543Z,38.40
2018-06-11T15:32:03.731Z,38.60
2018-06-11T15:34:32.186Z,38.70
2018-06-11T15:37:00.903Z,39.00
2018-06-11T15:39:29.412Z,39.10
2018-06-11T15:41:58.698Z,39.90
2018-06-11T15:44:27.294Z,39.30
2018-06-11T15:46:56.306Z,39.40
2018-06-11T15:49:24.889Z,39.50
2018-06-11T15:51:54.423Z,39.50
2018-06-11T15:54:23.084Z,39.60
2018-06-11T15:56:51.692Z,40.00
2018-06-11T15:59:20.132Z,40.00
2018-06-11T16:01:48.402Z,40.00
2018-06-11T16:04:16.764Z,40.10
2018-06-11T16:06:45.115Z,40.30
2018-06-11T16:09:13.415Z,40.40
2018-06-11T16:11:41.791Z,40.40
2018-06-11T16:14:10.132Z,40.50
2018-06-11T16:16:38.634Z,40.70
2018-06-11T16:19:07.053Z,40.70
2018-06-11T16:21:35.660Z,40.80
2018-06-11T16:24:04.055Z,40.90
2018-06-11T16:26:32.446Z,41.00
2018-06-11T16:29:03.055Z,41.10
2018-06-11T16:31:31.673Z,41.20
2018-06-11T16:34:00.822Z,41.30
2018-06-11T16:36:30.195Z,41.40
2018-06-11T16:38:58.735Z,41.50
2018-06-11T16:41:27.269Z,41.70
2018-06-11T16:43:55.835Z,41.80
2018-06-11T16:46:24.937Z,41.80
2018-06-11T16:48:53.830Z,41.90
2018-06-11T16:51:22.405Z,42.00
2018-06-11T16:53:51.532Z,42.10
2018-06-11T16:56:20.114Z,42.20
2018-06-11T16:58:48.632Z,42.30
2018-06-11T17:01:17.095Z,42.40
2018-06-11T17:03:45.584Z,42.50
2018-06-11T17:06:14.205Z,42.60
2018-06-11T17:11:10.675Z,42.70
2018-06-11T17:13:39.089Z,42.90
2018-06-11T17:16:07.531Z,42.90
2018-06-11T17:18:36.216Z,42.90
2018-06-11T17:21:04.524Z,43.10
2018-06-11T17:23:32.890Z,43.10
2018-06-11T17:26:04.380Z,43.20
2018-06-11T17:31:01.548Z,43.40
2018-06-11T17:33:30.029Z,43.50
2018-06-11T17:35:58.656Z,43.60
2018-06-11T17:38:27.269Z,43.70
2018-06-11T17:40:56.366Z,43.70
2018-06-11T17:43:24.824Z,43.90
2018-06-11T17:45:53.290Z,44.00
2018-06-11T17:50:51.574Z,44.10
2018-06-11T17:53:21.873Z,44.20
2018-06-11T17:55:51.260Z,44.30
2018-06-11T17:58:19.812Z,44.40
2018-06-11T18:00:48.407Z,44.50
2018-06-11T18:03:16.757Z,44.50
2018-06-11T18:05:45.151Z,44.60
2018-06-11T18:08:13.616Z,45.30
2018-06-11T18:10:42.116Z,44.70
2018-06-11T18:13:10.586Z,44.70
2018-06-11T18:15:39.041Z,44.70
2018-06-11T18:18:07.511Z,44.70
2018-06-11T18:20:35.892Z,44.70
2018-06-11T18:23:04.445Z,44.70
2018-06-11T18:25:32.786Z,44.80
2018-06-11T18:28:01.426Z,44.80
2018-06-11T18:30:29.952Z,44.90
2018-06-11T18:32:58.647Z,45.00
2018-06-11T18:35:27.363Z,45.10
2018-06-11T18:37:56.325Z,45.10
2018-06-11T18:40:24.845Z,45.20
2018-06-11T18:42:53.400Z,45.20
2018-06-11T18:45:21.848Z,45.30
2018-06-11T18:47:50.522Z,45.40
2018-06-11T18:50:19.036Z,45.40
2018-06-11T18:52:47.640Z,45.50
2018-06-11T18:55:16.008Z,45.40
2018-06-11T18:57:44.401Z,45.40
2018-06-11T19:00:13.037Z,45.40
2018-06-11T19:02:41.656Z,45.40
2018-06-11T19:07:44.712Z,45.40
2018-06-11T19:10:13.218Z,45.50
2018-06-11T19:12:41.605Z,45.50
2018-06-11T19:15:09.931Z,45.60
2018-06-11T19:17:38.389Z,45.60
2018-06-11T19:20:06.844Z,45.60
2018-06-11T19:22:35.161Z,45.60
2018-06-11T19:25:03.653Z,45.70
2018-06-11T19:27:32.014Z,45.70
2018-06-11T19:30:00.656Z,45.80
2018-06-11T19:32:29.087Z,45.80
2018-06-11T19:34:57.821Z,45.80
2018-06-11T19:39:54.477Z,46.00
2018-06-11T19:42:23.157Z,46.00
2018-06-11T19:47:20.015Z,46.30
2018-06-11T19:49:48.471Z,46.50
2018-06-11T19:54:45.304Z,47.00
2018-06-11T19:57:13.807Z,46.80
2018-06-11T19:59:42.154Z,47.00
2018-06-11T20:02:10.522Z,47.00
2018-06-11T20:04:38.819Z,47.10
2018-06-11T20:07:07.350Z,47.20
2018-06-11T20:09:35.713Z,47.30
2018-06-11T20:12:07.145Z,47.30
2018-06-11T20:14:39.748Z,47.50
2018-06-11T20:17:08.471Z,47.40
2018-06-11T20:22:07.046Z,47.70
2018-06-11T20:24:35.395Z,47.70
2018-06-11T20:27:03.951Z,47.70
2018-06-11T20:29:32.728Z,47.70
2018-06-11T20:32:01.181Z,47.70
2018-06-11T20:34:29.652Z,47.80
2018-06-11T20:36:58.377Z,47.90
2018-06-11T20:39:26.842Z,47.90
2018-06-11T20:41:55.291Z,48.00
2018-06-11T20:44:23.945Z,48.00
2018-06-11T20:46:52.638Z,48.00
2018-06-11T20:49:21.172Z,48.00
2018-06-11T20:51:49.618Z,48.10
2018-06-11T20:54:17.991Z,48.10
2018-06-11T20:56:46.378Z,48.20
2018-06-11T20:59:14.677Z,48.10
2018-06-11T21:01:43.146Z,48.10
2018-06-11T21:04:11.681Z,48.10
2018-06-11T21:06:40.007Z,48.20
2018-06-11T21:09:09.051Z,48.20
2018-06-11T21:11:37.371Z,48.20
2018-06-11T21:14:05.813Z,48.30
2018-06-11T21:16:34.198Z,48.30
2018-06-11T21:19:02.836Z,48.30
2018-06-11T21:21:31.362Z,48.20
2018-06-11T21:24:00.008Z,48.20
2018-06-11T21:26:28.685Z,48.30
2018-06-11T21:28:57.830Z,48.30
2018-06-11T21:31:26.313Z,48.40
2018-06-11T21:33:54.776Z,48.30
2018-06-11T21:36:23.364Z,48.50
2018-06-11T21:38:51.837Z,48.40
2018-06-11T21:41:20.318Z,48.40
2018-06-11T21:43:48.774Z,48.40
2018-06-11T21:46:17.240Z,48.30
2018-06-11T21:48:45.640Z,48.30
2018-06-11T21:51:14.094Z,48.20
2018-06-11T21:53:42.557Z,47.70
2018-06-11T21:56:11.139Z,48.20
2018-06-11T21:58:39.543Z,48.30
2018-06-11T22:01:07.999Z,48.30
2018-06-11T22:03:36.504Z,48.30
2018-06-11T22:06:04.824Z,48.30
2018-06-11T22:08:33.261Z,48.30
2018-06-11T22:11:01.793Z,48.30
2018-06-11T22:13:30.195Z,48.30
2018-06-11T22:15:59.116Z,48.20
2018-06-11T22:18:27.835Z,48.20
2018-06-11T22:20:56.362Z,48.20
2018-06-11T22:23:24.848Z,48.20
2018-06-11T22:25:53.341Z,48.20
2018-06-11T22:30:49.918Z,48.30
2018-06-11T22:33:18.265Z,48.20
2018-06-11T22:35:46.589Z,48.20
2018-06-11T22:38:14.952Z,48.40
2018-06-11T22:40:43.286Z,48.40
2018-06-11T22:43:11.638Z,48.40
2018-06-11T22:45:40.251Z,48.50
2018-06-11T22:48:08.547Z,48.40
2018-06-11T22:50:36.858Z,48.50
2018-06-11T22:53:05.146Z,48.50
2018-06-11T22:55:33.482Z,48.50
2018-06-11T23:00:33.686Z,48.60
2018-06-11T23:03:02.711Z,48.60
2018-06-11T23:05:31.227Z,48.60
2018-06-11T23:07:59.642Z,48.60
2018-06-11T23:10:28.780Z,48.60
2018-06-11T23:12:57.448Z,48.50
2018-06-11T23:15:25.946Z,48.50
2018-06-11T23:17:54.294Z,49.00
2018-06-11T23:20:22.643Z,48.50
2018-06-11T23:22:50.951Z,48.60
2018-06-11T23:25:19.287Z,48.60
2018-06-11T23:27:47.616Z,48.70
2018-06-11T23:30:16.083Z,48.50
2018-06-11T23:32:44.447Z,48.50
2018-06-11T23:35:12.806Z,48.50
2018-06-11T23:37:41.153Z,48.50
2018-06-11T23:40:09.758Z,48.50
2018-06-11T23:42:38.479Z,48.40
2018-06-11T23:45:06.873Z,48.30
2018-06-11T23:50:03.374Z,48.30
2018-06-11T23:52:31.764Z,48.30
2018-06-11T23:55:00.311Z,48.30
2018-06-11T23:57:35.295Z,48.50
